Time;durP1;ratioP1;P1;durP2;ratioP2;P2;SDS_P1;SDS_P2;PMS_P1;PMS_P2;Temp;Humidity;BMP_temperature;BMP_pressure;BME280_temperature;BME280_humidity;BME280_pressure;Samples;Min_cycle;Max_cycle;Signal;HPM_P1;HPM_P2
2023/01/15 00:00:03;;;;;;;3.03;1.50;;;;;;;18.81;57.39;99080.88;5086619;28;20192;-65
2023/01/15 00:02:30;;;;;;;4.97;1.47;;;;;;;18.82;57.19;99076.78;5074673;28;20221;-65
2023/01/15 00:04:55;;;;;;;4.73;1.70;;;;;;;18.82;57.46;99073.94;5093817;28;20450;-65
2023/01/15 00:07:20;;;;;;;4.80;1.53;;;;;;;18.82;57.31;99071.88;5111752;28;20408;-65
2023/01/15 00:09:46;;;;;;;2.80;1.30;;;;;;;18.81;57.30;99083.75;5112384;28;20197;-65
2023/01/15 00:12:11;;;;;;;6.53;1.80;;;;;;;18.82;57.49;99077.59;5090448;28;20185;-65
2023/01/15 00:14:37;;;;;;;4.30;1.80;;;;;;;18.79;57.65;99060.44;5098159;28;20185;-65
2023/01/15 00:17:02;;;;;;;4.40;1.33;;;;;;;18.80;57.51;99079.22;5100146;28;20179;-65
2023/01/15 00:19:28;;;;;;;3.97;1.43;;;;;;;18.85;57.46;99065.34;5073274;28;20202;-65
2023/01/15 00:21:53;;;;;;;2.23;1.20;;;;;;;18.80;57.52;99064.94;5072551;28;20267;-65
2023/01/15 00:29:46;;;;;;;5.20;1.73;;;;;;;18.82;57.37;99043.28;5084943;28;20494;-65
2023/01/15 00:32:12;;;;;;;3.27;1.40;;;;;;;18.82;57.80;99046.13;5087903;28;20424;-65
2023/01/15 00:34:37;;;;;;;4.97;1.60;;;;;;;18.78;57.52;99030.22;5069689;28;20183;-65
2023/01/15 00:37:03;;;;;;;3.97;1.40;;;;;;;18.80;57.47;99037.16;5086365;28;20190;-65
2023/01/15 00:39:28;;;;;;;4.57;1.53;;;;;;;18.79;57.43;99041.25;5090911;28;20178;-65
2023/01/15 00:41:54;;;;;;;3.80;1.67;;;;;;;18.78;57.40;99036.78;5077638;28;20199;-65
2023/01/15 00:44:20;;;;;;;3.50;1.53;;;;;;;18.80;57.66;99039.19;5070633;28;20203;-65
2023/01/15 00:46:45;;;;;;;9.13;1.50;;;;;;;18.76;57.52;99033.50;5053758;28;20179;-65
2023/01/15 00:49:11;;;;;;;3.00;1.43;;;;;;;18.79;57.31;99041.25;5090978;28;20187;-65
2023/01/15 00:51:36;;;;;;;4.07;1.70;;;;;;;18.77;57.63;99032.25;5091177;28;20626;-65
2023/01/15 00:54:02;;;;;;;3.87;1.70;;;;;;;18.74;57.67;99030.25;5077025;28;20178;-65
2023/01/15 00:56:27;;;;;;;3.80;1.50;;;;;;;18.75;57.60;99023.31;5068521;28;20202;-65
2023/01/15 00:58:53;;;;;;;6.23;1.40;;;;;;;18.79;57.50;99008.97;5076350;28;20231;-65
2023/01/15 01:01:18;;;;;;;3.97;1.53;;;;;;;18.80;57.51;99011.44;5074427;28;20195;-65
2023/01/15 01:03:47;;;;;;;3.20;1.33;;;;;;;18.77;57.71;99015.13;5064151;28;20239;-65
2023/01/15 01:06:14;;;;;;;3.73;1.50;;;;;;;18.78;57.29;99008.19;5091402;28;20568;-65
2023/01/15 01:08:40;;;;;;;2.87;1.23;;;;;;;18.82;57.41;99008.16;5093947;28;20458;-65
2023/01/15 01:11:07;;;;;;;2.70;1.17;;;;;;;18.78;57.43;99010.22;5091679;28;20421;-65
2023/01/15 01:13:33;;;;;;;2.97;1.40;;;;;;;18.78;57.40;99008.19;5073863;28;20201;-65
2023/01/15 01:15:58;;;;;;;4.97;1.87;;;;;;;18.74;57.51;99013.09;5073267;28;20417;-65
2023/01/15 01:18:24;;;;;;;4.23;2.13;;;;;;;18.73;57.84;99011.47;5078320;28;20190;-65
2023/01/15 01:20:49;;;;;;;4.23;1.50;;;;;;;18.75;57.53;98991.03;5075306;28;20182;-65
2023/01/15 01:23:15;;;;;;;5.33;1.20;;;;;;;18.75;57.57;98997.56;5086256;28;20183;-65
2023/01/15 01:25:40;;;;;;;3.93;1.20;;;;;;;18.76;57.75;98996.34;5073898;28;20171;-65
2023/01/15 01:28:05;;;;;;;3.80;1.43;;;;;;;18.71;57.74;99011.06;5073426;28;20178;-65
2023/01/15 01:30:31;;;;;;;3.97;1.57;;;;;;;18.74;57.74;99001.66;5091265;28;20186;-65
2023/01/15 01:32:56;;;;;;;4.20;1.37;;;;;;;18.77;57.29;98997.16;5093892;28;20528;-65
2023/01/15 01:35:22;;;;;;;3.47;1.37;;;;;;;18.73;57.57;98991.47;5089705;28;20182;-65
2023/01/15 01:37:50;;;;;;;6.10;1.80;;;;;;;18.75;57.92;98986.13;5093786;28;20529;-65
2023/01/15 01:40:16;;;;;;;2.60;1.30;;;;;;;18.73;57.70;98988.59;5092316;28;20257;-65
2023/01/15 01:42:42;;;;;;;3.10;1.13;;;;;;;18.73;57.61;98979.19;5091034;28;20460;-65
2023/01/15 01:45:30;;;;;;;4.30;1.57;;;;;;;18.71;57.82;98995.97;5093385;28;20948;-65
2023/01/15 01:47:58;;;;;;;6.27;1.50;;;;;;;18.70;57.65;98974.28;5062364;28;20230;-65
2023/01/15 01:50:24;;;;;;;2.37;1.27;;;;;;;18.71;57.84;98968.16;5074471;28;20427;-65
2023/01/15 01:52:55;;;;;;;2.70;1.10;;;;;;;18.71;57.61;98982.47;5088216;28;20927;-65
2023/01/15 01:55:21;;;;;;;5.03;1.30;;;;;;;18.70;57.63;98983.69;5074985;28;20178;-65
2023/01/15 01:57:47;;;;;;;4.03;1.60;;;;;;;18.74;57.63;98978.78;5110952;28;20423;-65
2023/01/15 02:00:37;;;;;;;2.43;1.30;;;;;;;18.69;57.76;98979.22;5055611;28;20905;-62
2023/01/15 02:03:04;;;;;;;5.80;1.33;;;;;;;18.71;57.86;98971.03;5071174;28;20201;-61
2023/01/15 02:05:32;;;;;;;3.30;1.13;;;;;;;18.68;57.94;98962.47;5071263;28;20476;-63
2023/01/15 02:07:57;;;;;;;4.70;1.57;;;;;;;18.68;57.68;98956.75;5075267;28;20460;-62
2023/01/15 02:10:23;;;;;;;2.70;1.13;;;;;;;18.68;57.77;98956.75;5053257;28;20444;-62
2023/01/15 02:13:16;;;;;;;3.97;1.43;;;;;;;18.67;57.60;98953.06;5074733;28;20872;-61
2023/01/15 02:15:46;;;;;;;2.27;1.47;;;;;;;18.69;57.50;98955.53;5042806;28;20198;-62
2023/01/15 02:18:29;;;;;;;8.03;1.30;;;;;;;18.70;57.77;98951.44;5037914;28;20421;-62
2023/01/15 02:21:19;;;;;;;3.73;1.30;;;;;;;18.68;57.64;98951.88;5090835;28;20413;-62
2023/01/15 02:24:03;;;;;;;3.03;1.33;;;;;;;18.67;57.62;98955.94;5040422;28;20424;-62
2023/01/15 02:26:48;;;;;;;3.60;1.20;;;;;;;18.65;57.78;98946.13;5059330;28;20441;-62
2023/01/15 02:29:20;;;;;;;2.60;1.30;;;;;;;18.64;57.86;98933.09;5057728;28;20433;-62
2023/01/15 02:31:48;;;;;;;3.20;1.27;;;;;;;18.66;57.82;98940.00;5072463;28;20463;-60
2023/01/15 02:34:29;;;;;;;2.37;1.10;;;;;;;18.66;57.86;98937.16;5077811;28;20416;-60
2023/01/15 02:37:00;;;;;;;3.30;1.10;;;;;;;18.66;57.70;98937.16;5112692;28;20412;-60
2023/01/15 02:39:26;;;;;;;2.27;1.23;;;;;;;18.67;57.86;98938.78;5075266;28;20786;-60
2023/01/15 02:41:53;;;;;;;2.73;1.13;;;;;;;18.65;57.64;98924.09;5089305;28;20464;-60
2023/01/15 02:44:20;;;;;;;3.00;1.50;;;;;;;18.67;57.59;98915.13;5074005;28;20202;-60
2023/01/15 02:46:46;;;;;;;2.70;1.00;;;;;;;18.67;57.83;98918.75;5062229;28;20451;-60
2023/01/15 02:49:14;;;;;;;2.63;1.20;;;;;;;18.64;57.75;98922.47;5059653;28;20421;-60
2023/01/15 02:52:01;;;;;;;2.63;1.00;;;;;;;18.64;57.80;98922.47;5053955;28;20162;-60
2023/01/15 02:54:27;;;;;;;5.87;1.70;;;;;;;18.66;58.08;98924.94;5071564;28;20437;-60
2023/01/15 02:56:53;;;;;;;2.90;1.10;;;;;;;18.64;57.86;98919.63;5055875;28;20444;-60
2023/01/15 02:59:29;;;;;;;3.50;1.60;;;;;;;18.65;57.88;98926.13;5071632;28;20409;-61
2023/01/15 03:01:59;;;;;;;5.23;1.47;;;;;;;18.62;58.03;98919.19;5039209;28;20218;-61
2023/01/15 03:04:30;;;;;;;2.80;1.20;;;;;;;18.65;57.75;98918.38;5065866;28;20440;-61
2023/01/15 03:07:18;;;;;;;3.53;1.20;;;;;;;18.63;57.90;98932.28;5086150;28;20436;-61
2023/01/15 03:09:44;;;;;;;2.13;0.97;;;;;;;18.63;57.89;98915.13;5056061;28;20436;-61
2023/01/15 03:12:19;;;;;;;3.10;1.40;;;;;;;18.62;57.73;98924.91;5052650;28;20413;-61
2023/01/15 03:15:04;;;;;;;4.83;1.60;;;;;;;18.60;57.66;98907.38;5055320;28;20433;-61
2023/01/15 03:17:51;;;;;;;5.07;1.30;;;;;;;18.63;57.74;98914.31;5071571;28;20431;-61
2023/01/15 03:20:24;;;;;;;2.30;1.00;;;;;;;18.62;58.08;98922.06;5067912;28;20784;-61
2023/01/15 03:22:53;;;;;;;2.30;1.30;;;;;;;18.62;57.98;98910.63;5056717;28;20933;-61
2023/01/15 03:25:20;;;;;;;2.87;1.10;;;;;;;18.61;57.82;98906.13;5049312;28;20437;-61
2023/01/15 03:27:45;;;;;;;3.10;1.27;;;;;;;18.61;57.67;98908.19;5037015;28;20482;-62
2023/01/15 03:30:17;;;;;;;2.50;1.20;;;;;;;18.61;57.86;98906.13;5071341;28;20414;-61
2023/01/15 03:32:42;;;;;;;2.70;1.30;;;;;;;18.61;57.93;98900.44;5071227;28;20274;-61
2023/01/15 03:35:57;;;;;;;2.43;1.33;;;;;;;18.61;57.85;98896.78;5073298;28;20778;-61
2023/01/15 03:38:27;;;;;;;4.10;1.40;;;;;;;18.61;58.09;98905.34;5062057;28;20240;-61
2023/01/15 03:41:11;;;;;;;2.83;1.20;;;;;;;18.63;57.76;98900.84;5072698;28;20520;-61
2023/01/15 03:43:39;;;;;;;3.53;1.40;;;;;;;18.60;57.94;98924.53;5071054;28;20474;-61
2023/01/15 03:46:07;;;;;;;2.30;0.93;;;;;;;18.63;57.87;98932.28;5081286;28;20463;-61
2023/01/15 03:48:37;;;;;;;2.57;1.20;;;;;;;18.62;57.84;98932.69;5074307;28;20840;-61
2023/01/15 03:51:11;;;;;;;3.03;1.20;;;;;;;18.59;58.08;98965.78;5090498;28;20431;-61
2023/01/15 03:53:43;;;;;;;5.97;1.17;;;;;;;18.61;58.08;98991.09;5094697;28;20494;-61
2023/01/15 03:56:18;;;;;;;2.63;1.00;;;;;;;18.62;57.93;98993.50;5093803;28;20960;-61
2023/01/15 03:58:52;;;;;;;2.40;1.17;;;;;;;18.61;57.66;99011.09;5095149;28;20965;-61
2023/01/15 04:01:19;;;;;;;1.90;1.00;;;;;;;18.62;57.77;99022.09;5073159;28;20463;-61
2023/01/15 04:03:44;;;;;;;3.13;1.30;;;;;;;18.61;57.63;99026.19;5072985;28;20507;-62
2023/01/15 04:06:10;;;;;;;4.10;1.33;;;;;;;18.60;58.05;99036.00;5091172;28;20531;-61
2023/01/15 04:08:37;;;;;;;2.70;1.10;;;;;;;18.61;57.77;99029.06;5068759;28;20201;-61
2023/01/15 04:11:03;;;;;;;2.97;1.27;;;;;;;18.60;57.68;99046.59;5056083;28;20174;-62
2023/01/15 04:13:28;;;;;;;2.00;1.07;;;;;;;18.61;57.87;99045.41;5063180;28;20595;-61
2023/01/15 04:15:55;;;;;;;2.50;1.23;;;;;;;18.63;58.02;99040.06;5070488;28;20187;-61
2023/01/15 04:18:20;;;;;;;2.37;1.00;;;;;;;18.62;57.94;99059.25;5052299;28;20573;-62
2023/01/15 04:20:46;;;;;;;4.00;1.60;;;;;;;18.59;57.85;99071.53;5071670;28;20429;-61
2023/01/15 04:23:11;;;;;;;2.37;0.90;;;;;;;18.60;57.83;99072.34;5069826;28;20256;-62
2023/01/15 04:25:38;;;;;;;2.90;1.23;;;;;;;18.60;57.96;99070.31;5074765;28;20215;-62
2023/01/15 04:28:03;;;;;;;2.70;1.03;;;;;;;18.57;57.59;99051.09;5087309;28;20174;-62
2023/01/15 04:30:29;;;;;;;6.17;1.30;;;;;;;18.61;57.77;99074.00;5085330;28;20492;-61
2023/01/15 04:32:54;;;;;;;2.33;1.10;;;;;;;18.56;57.78;99069.50;5112371;28;20169;-61
2023/01/15 04:35:20;;;;;;;3.13;1.10;;;;;;;18.55;57.85;99070.72;5092021;28;20646;-61
2023/01/15 04:37:45;;;;;;;4.13;0.97;;;;;;;18.55;58.05;99067.84;5076493;28;20281;-61
2023/01/15 04:44:05;;;;;;;2.43;1.10;;;;;;;18.54;58.05;99085.41;5091064;28;20523;-61
2023/01/15 04:45:44;;;;;;;2.20;0.97;;;;;;;18.55;57.85;99085.00;5094455;28;20553;-62
2023/01/15 04:48:11;;;;;;;2.10;0.87;;;;;;;18.57;57.93;99091.13;5094196;28;20499;-62
2023/01/15 04:50:37;;;;;;;1.73;0.83;;;;;;;18.54;57.92;99100.53;5060027;28;20202;-62
2023/01/15 04:53:02;;;;;;;2.10;1.07;;;;;;;18.55;57.71;99089.91;5074055;28;20398;-61
2023/01/15 04:55:28;;;;;;;2.37;1.00;;;;;;;18.54;57.82;99100.53;5073967;28;20843;-62
2023/01/15 04:57:54;;;;;;;1.70;0.80;;;;;;;18.55;57.80;99101.34;5074942;28;22111;-62
2023/01/15 05:00:20;;;;;;;3.53;1.20;;;;;;;18.53;58.02;99098.91;5092640;28;20432;-62
2023/01/15 05:02:45;;;;;;;2.00;0.90;;;;;;;18.55;57.65;99107.88;5094106;28;20319;-62
2023/01/15 05:05:10;;;;;;;2.77;1.07;;;;;;;18.53;57.57;99098.09;5073630;28;20256;-62
2023/01/15 05:07:36;;;;;;;2.43;0.90;;;;;;;18.52;58.09;99108.69;5076921;28;20187;-61
2023/01/15 05:10:01;;;;;;;2.30;1.10;;;;;;;18.52;57.85;99117.25;5094046;28;20450;-62
2023/01/15 05:12:27;;;;;;;2.53;1.00;;;;;;;18.51;57.80;99115.63;5056485;28;20241;-62
2023/01/15 05:14:52;;;;;;;2.83;1.20;;;;;;;18.56;57.80;99120.94;5075449;28;20190;-61
2023/01/15 05:17:17;;;;;;;3.90;1.10;;;;;;;18.54;57.84;99108.28;5073790;28;20809;-62
2023/01/15 05:19:43;;;;;;;3.23;0.97;;;;;;;18.53;57.87;99118.91;5083833;28;20197;-62
2023/01/15 05:22:08;;;;;;;2.50;0.90;;;;;;;18.54;57.87;99116.84;5093563;28;20213;-62
2023/01/15 05:24:34;;;;;;;2.50;1.00;;;;;;;18.54;57.89;99126.25;5091991;28;20190;-62
2023/01/15 05:26:59;;;;;;;3.30;1.30;;;;;;;18.53;57.63;99121.78;5073250;28;20202;-62
2023/01/15 05:29:25;;;;;;;2.00;0.97;;;;;;;18.54;57.74;99117.69;5072305;28;20193;-61
2023/01/15 05:31:50;;;;;;;2.27;1.20;;;;;;;18.53;58.20;99106.66;5085042;28;20189;-62
2023/01/15 05:34:16;;;;;;;2.17;0.93;;;;;;;18.53;57.85;99109.50;5074159;28;20207;-62
2023/01/15 05:36:41;;;;;;;2.83;1.10;;;;;;;18.52;57.59;99108.69;5089935;28;20232;-61
2023/01/15 05:39:06;;;;;;;2.90;1.30;;;;;;;18.49;57.62;99112.38;5054272;28;20179;-62
2023/01/15 05:41:51;;;;;;;2.17;0.83;;;;;;;18.50;57.74;99114.00;5075004;28;20281;-62
2023/01/15 05:44:26;;;;;;;2.00;0.90;;;;;;;18.54;57.77;99114.00;5075654;28;20182;-62
2023/01/15 05:46:53;;;;;;;1.70;1.03;;;;;;;18.53;57.61;99107.47;5103969;28;20509;-61
2023/01/15 05:49:20;;;;;;;2.10;0.97;;;;;;;18.51;57.69;99112.78;5095051;28;20485;-61
2023/01/15 05:51:46;;;;;;;2.10;0.80;;;;;;;18.52;57.86;99120.13;5055313;28;20398;-62
2023/01/15 05:54:17;;;;;;;2.40;0.97;;;;;;;18.51;57.83;99129.91;5081600;28;20461;-62
2023/01/15 05:56:44;;;;;;;2.00;0.90;;;;;;;18.50;57.87;99133.19;5071360;28;20159;-61
2023/01/15 05:59:09;;;;;;;1.97;1.00;;;;;;;18.49;58.14;99143.00;5068556;28;20436;-62
2023/01/15 06:01:35;;;;;;;2.73;0.90;;;;;;;18.53;58.00;99161.78;5082819;28;20461;-62
2023/01/15 06:04:01;;;;;;;2.47;0.97;;;;;;;18.51;57.67;99155.66;5072714;28;20179;-62
2023/01/15 06:06:26;;;;;;;1.90;0.90;;;;;;;18.51;57.76;99163.41;5073711;28;20627;-62
2023/01/15 06:08:52;;;;;;;2.27;1.27;;;;;;;18.51;57.73;99164.22;5073889;28;20202;-62
2023/01/15 06:11:18;;;;;;;2.23;1.03;;;;;;;18.50;57.81;99170.34;5072344;28;20286;-62
2023/01/15 06:13:43;;;;;;;1.53;0.87;;;;;;;18.52;57.67;99174.41;5083208;28;20192;-61
2023/01/15 06:16:11;;;;;;;3.20;1.03;;;;;;;18.50;57.81;99176.88;5092893;28;20169;-61
2023/01/15 06:18:38;;;;;;;2.80;1.13;;;;;;;18.54;57.44;99174.03;5072215;28;20178;-61
2023/01/15 06:21:04;;;;;;;2.53;1.00;;;;;;;18.53;57.83;99184.66;5054139;28;20429;-62
2023/01/15 06:23:30;;;;;;;3.30;1.23;;;;;;;18.53;57.64;99201.81;5071119;28;20436;-62
2023/01/15 06:25:59;;;;;;;2.97;1.03;;;;;;;18.50;57.60;99207.50;5053267;28;20414;-62
2023/01/15 06:28:24;;;;;;;1.80;0.80;;;;;;;18.56;57.57;99223.84;5055881;28;20175;-62
2023/01/15 06:30:50;;;;;;;3.37;1.10;;;;;;;18.54;57.47;99240.59;5072987;28;20498;-62
2023/01/15 06:33:15;;;;;;;1.87;1.07;;;;;;;18.52;57.38;99245.06;5088663;28;20199;-61
2023/01/15 06:35:41;;;;;;;2.03;1.03;;;;;;;18.51;57.60;99247.09;5078186;28;20183;-61
2023/01/15 06:38:06;;;;;;;3.70;1.10;;;;;;;18.54;57.53;99254.88;5091318;28;20223;-62
2023/01/15 06:40:32;;;;;;;1.70;0.90;;;;;;;18.55;57.66;99255.69;5088778;28;20183;-61
2023/01/15 06:48:25;;;;;;;1.70;0.97;;;;;;;18.52;57.83;99280.16;5074883;28;20836;-62
2023/01/15 06:50:52;;;;;;;3.00;1.10;;;;;;;18.51;57.90;99289.97;5087642;28;20444;-62
2023/01/15 06:53:18;;;;;;;1.77;0.97;;;;;;;18.53;57.72;99284.69;5054187;28;20560;-62
2023/01/15 06:55:43;;;;;;;1.60;0.90;;;;;;;18.50;57.70;99290.38;5070646;28;20512;-62
2023/01/15 06:58:09;;;;;;;3.33;1.10;;;;;;;18.55;57.69;99290.81;5073265;28;20179;-62
2023/01/15 07:00:34;;;;;;;2.83;0.80;;;;;;;18.59;57.41;99310.81;5071946;28;20287;-62
2023/01/15 07:03:00;;;;;;;2.10;0.87;;;;;;;18.57;57.44;99321.84;5082616;28;20692;-62
2023/01/15 07:05:25;;;;;;;2.97;1.10;;;;;;;18.55;57.57;99325.09;5070597;28;20203;-62
2023/01/15 07:07:51;;;;;;;4.27;1.23;;;;;;;18.52;57.46;99322.25;5070864;28;20709;-62
2023/01/15 07:10:17;;;;;;;2.00;1.00;;;;;;;18.54;57.84;99314.91;5070929;28;20171;-62
2023/01/15 07:12:42;;;;;;;1.77;0.97;;;;;;;18.51;57.36;99324.28;5081484;28;20616;-62
2023/01/15 07:15:08;;;;;;;2.17;0.80;;;;;;;18.54;57.71;99316.94;5073447;28;20209;-62
2023/01/15 07:17:33;;;;;;;2.90;1.00;;;;;;;18.54;57.34;99317.75;5089539;28;20187;-62
2023/01/15 07:19:59;;;;;;;2.43;0.97;;;;;;;18.55;57.65;99315.69;5040873;28;20182;-62
2023/01/15 07:22:24;;;;;;;2.33;1.07;;;;;;;18.60;57.39;99315.31;5071458;28;20210;-65
2023/01/15 07:24:50;;;;;;;1.60;0.80;;;;;;;18.57;57.49;99339.00;5076087;28;20202;-65
2023/01/15 07:27:15;;;;;;;2.10;0.87;;;;;;;18.53;57.39;99353.28;5073526;28;20238;-65
2023/01/15 07:29:40;;;;;;;1.50;0.70;;;;;;;18.51;57.48;99358.56;5073750;28;20185;-65
2023/01/15 07:32:06;;;;;;;2.10;0.80;;;;;;;18.53;57.54;99361.88;5091945;28;20158;-65
2023/01/15 07:34:31;;;;;;;1.47;0.80;;;;;;;18.50;57.51;99368.38;5078294;28;20183;-64
2023/01/15 07:36:57;;;;;;;2.10;1.00;;;;;;;18.53;57.41;99390.44;5079187;28;20166;-65
2023/01/15 07:39:22;;;;;;;2.13;1.00;;;;;;;18.55;57.27;99390.03;5069865;28;20179;-65
2023/01/15 07:50:16;;;;;;;1.67;0.80;;;;;;;18.52;57.49;99410.84;5090883;28;20486;-65
2023/01/15 07:52:42;;;;;;;1.73;0.80;;;;;;;18.51;57.64;99404.31;5073586;28;20450;-65
2023/01/15 07:55:08;;;;;;;3.40;1.13;;;;;;;18.51;57.43;99410.03;5091576;28;20416;-64
2023/01/15 07:57:34;;;;;;;2.30;1.20;;;;;;;18.52;57.37;99420.22;5087738;28;20186;-64
2023/01/15 08:00:00;;;;;;;1.80;0.80;;;;;;;18.55;57.21;99415.75;5056031;28;20404;-64
2023/01/15 08:02:26;;;;;;;2.33;1.13;;;;;;;18.56;57.44;99423.13;5054116;28;20224;-64
2023/01/15 08:04:51;;;;;;;1.80;0.90;;;;;;;18.57;57.33;99425.56;5072071;28;20194;-64
2023/01/15 08:07:17;;;;;;;1.80;0.93;;;;;;;18.54;57.43;99426.38;5091835;28;20400;-64
2023/01/15 08:09:42;;;;;;;4.10;0.80;;;;;;;18.53;57.30;99443.94;5095415;28;20213;-64
2023/01/15 08:17:36;;;;;;;2.80;1.00;;;;;;;18.58;57.05;99458.66;5095444;28;20399;-64
2023/01/15 08:20:03;;;;;;;1.97;0.80;;;;;;;18.59;57.04;99466.00;5082441;28;20956;-64
2023/01/15 08:22:29;;;;;;;2.07;0.73;;;;;;;18.52;57.27;99456.59;5072178;28;20207;-64
2023/01/15 08:24:54;;;;;;;1.90;1.10;;;;;;;18.52;57.34;99453.72;5075675;28;20439;-64
2023/01/15 08:27:20;;;;;;;2.30;1.17;;;;;;;18.51;57.49;99467.19;5102890;28;20162;-64
2023/01/15 08:29:45;;;;;;;1.80;0.83;;;;;;;18.52;57.44;99468.81;5113017;28;20158;-64
2023/01/15 08:32:11;;;;;;;1.40;0.77;;;;;;;18.53;57.35;99459.03;5115231;28;20170;-64
2023/01/15 08:34:36;;;;;;;1.80;0.80;;;;;;;18.54;57.33;99457.81;5096343;28;20666;-64
2023/01/15 08:37:02;;;;;;;2.30;0.80;;;;;;;18.50;57.62;99462.69;5056606;28;20205;-64
2023/01/15 08:39:27;;;;;;;1.83;0.70;;;;;;;18.56;57.34;99457.44;5075319;28;20182;-64
2023/01/15 08:41:56;;;;;;;2.80;1.10;;;;;;;18.59;57.37;99462.31;5073328;28;20673;-64
2023/01/15 08:44:22;;;;;;;1.60;0.87;;;;;;;18.55;57.23;99472.91;5114322;28;20790;-64
2023/01/15 08:46:48;;;;;;;2.30;1.00;;;;;;;18.56;57.31;99475.38;5113747;28;20426;-64
2023/01/15 08:49:14;;;;;;;1.93;1.00;;;;;;;18.54;57.24;99483.53;5082619;28;20809;-64
2023/01/15 08:51:39;;;;;;;1.77;0.90;;;;;;;18.53;57.45;99475.38;5073438;28;20401;-64
2023/01/15 08:54:05;;;;;;;1.70;0.80;;;;;;;18.54;57.33;99494.16;5091169;28;20854;-64
2023/01/15 08:56:30;;;;;;;1.77;0.73;;;;;;;18.56;57.35;99483.16;5055893;28;20217;-64
2023/01/15 08:58:56;;;;;;;1.93;0.97;;;;;;;18.57;57.07;99504.78;5054102;28;20171;-64
2023/01/15 09:01:21;;;;;;;2.10;1.00;;;;;;;18.61;57.18;99523.59;5079373;28;20186;-64
2023/01/15 09:03:46;;;;;;;1.80;1.00;;;;;;;18.59;57.27;99528.91;5084700;28;20534;-64
2023/01/15 09:06:12;;;;;;;1.90;1.00;;;;;;;18.55;57.49;99530.91;5072296;28;20203;-64
2023/01/15 09:08:37;;;;;;;1.90;0.90;;;;;;;18.56;57.41;99541.13;5074108;28;20175;-64
2023/01/15 09:11:04;;;;;;;2.47;0.90;;;;;;;18.57;56.99;99533.38;5063727;28;20239;-64
2023/01/15 09:13:29;;;;;;;2.33;0.90;;;;;;;18.57;57.30;99536.25;5073989;28;20198;-64
2023/01/15 09:16:01;;;;;;;1.87;0.80;;;;;;;18.55;57.30;99527.22;5076573;28;20436;-64
2023/01/15 09:18:27;;;;;;;1.60;0.90;;;;;;;18.51;57.60;99535.78;5076866;28;20193;-64
2023/01/15 09:20:52;;;;;;;1.73;0.70;;;;;;;18.55;57.17;99533.78;5093988;28;20416;-64
2023/01/15 09:23:18;;;;;;;1.80;0.90;;;;;;;18.56;57.12;99543.19;5090903;28;20201;-64
2023/01/15 09:26:00;;;;;;;2.10;0.90;;;;;;;18.54;57.37;99557.03;5093443;28;20215;-64
2023/01/15 09:28:26;;;;;;;1.77;0.87;;;;;;;18.54;57.42;99557.88;5066996;28;20183;-64
2023/01/15 09:30:52;;;;;;;1.70;0.80;;;;;;;18.55;57.61;99559.50;5055504;28;20457;-64
2023/01/15 09:33:17;;;;;;;2.40;0.87;;;;;;;18.54;57.56;99563.59;5073580;28;20398;-64
2023/01/15 09:35:43;;;;;;;1.93;1.00;;;;;;;18.57;57.27;99574.19;5073704;28;20622;-64
2023/01/15 09:38:12;;;;;;;1.90;0.70;;;;;;;18.59;57.28;99576.66;5095698;28;20177;-64
2023/01/15 09:40:56;;;;;;;1.70;0.83;;;;;;;18.57;57.36;99577.06;5114116;28;20220;-64
2023/01/15 09:43:52;;;;;;;2.00;0.70;;;;;;;18.61;57.33;99591.41;5076752;28;20476;-64
2023/01/15 09:46:45;;;;;;;2.00;0.93;;;;;;;18.59;57.36;99600.38;5062343;28;20794;-64
2023/01/15 09:49:32;;;;;;;1.63;0.83;;;;;;;18.59;57.36;99602.41;5075687;28;20495;-64
2023/01/15 09:52:28;;;;;;;1.60;0.83;;;;;;;18.60;57.28;99616.31;5073509;28;20423;-64
2023/01/15 09:55:06;;;;;;;1.93;0.90;;;;;;;18.57;57.43;99627.72;5102220;28;20785;-64
2023/01/15 09:57:31;;;;;;;3.17;0.90;;;;;;;18.58;57.21;99644.47;5077014;28;20906;-64
2023/01/15 10:00:01;;;;;;;1.87;0.60;;;;;;;18.59;57.38;99668.97;5093724;28;20416;-64
2023/01/15 10:02:49;;;;;;;1.90;0.90;;;;;;;18.58;57.35;99673.06;5075639;28;20276;-64
2023/01/15 10:05:22;;;;;;;2.07;0.70;;;;;;;18.61;57.68;99675.13;5055100;28;20437;-64
2023/01/15 10:08:21;;;;;;;1.30;0.60;;;;;;;18.60;57.20;99682.06;5057333;28;20448;-64
2023/01/15 10:10:49;;;;;;;1.80;0.80;;;;;;;18.59;57.13;99680.41;5072701;28;20923;-65
2023/01/15 10:13:44;;;;;;;3.10;0.90;;;;;;;18.58;57.20;99678.78;5038554;28;20466;-65
2023/01/15 10:16:10;;;;;;;1.80;0.90;;;;;;;18.53;57.47;99682.00;5056533;28;20459;-64
2023/01/15 10:18:36;;;;;;;2.43;0.70;;;;;;;18.57;57.00;99677.13;5042804;28;20891;-65
2023/01/15 10:21:29;;;;;;;1.50;0.70;;;;;;;18.59;57.13;99697.56;5092823;28;20264;-64
2023/01/15 10:24:01;;;;;;;1.70;0.77;;;;;;;18.58;56.96;99701.66;5074874;28;20193;-65
2023/01/15 10:26:53;;;;;;;1.60;0.70;;;;;;;18.56;56.99;99718.34;5074546;28;20908;-65
2023/01/15 10:29:42;;;;;;;1.53;0.70;;;;;;;18.57;57.07;99727.78;5059388;28;20401;-65
2023/01/15 10:32:32;;;;;;;2.10;0.80;;;;;;;18.56;56.91;99738.38;5089420;28;20444;-65
2023/01/15 10:35:13;;;;;;;1.80;0.80;;;;;;;18.57;56.34;99733.47;5113241;28;20411;-65
2023/01/15 10:37:44;;;;;;;1.80;0.87;;;;;;;18.57;56.67;99736.34;5102382;28;20819;-65
2023/01/15 10:40:28;;;;;;;2.03;0.87;;;;;;;18.58;56.91;99747.41;5075168;28;20503;-65
2023/01/15 10:43:15;;;;;;;1.93;0.90;;;;;;;18.55;56.94;99736.72;5062318;28;20465;-64
2023/01/15 10:45:45;;;;;;;1.70;0.90;;;;;;;18.59;56.99;99737.59;5090665;28;20424;-65
2023/01/15 10:48:31;;;;;;;1.90;0.90;;;;;;;18.58;57.06;99733.09;5088953;28;20541;-65
2023/01/15 10:50:57;;;;;;;1.50;0.70;;;;;;;18.60;56.83;99729.81;5091764;28;20798;-64
2023/01/15 10:53:48;;;;;;;1.70;0.70;;;;;;;18.54;56.82;99729.38;5071793;28;20900;-64
2023/01/15 10:57:00;;;;;;;1.50;0.80;;;;;;;18.59;56.79;99736.75;5071405;28;20429;-64
2023/01/15 10:59:45;;;;;;;2.00;1.00;;;;;;;18.55;56.90;99736.72;5070449;28;20440;-65
2023/01/15 11:02:38;;;;;;;2.23;0.80;;;;;;;18.57;56.69;99733.47;5071656;28;20445;-64
2023/01/15 11:05:03;;;;;;;1.60;0.73;;;;;;;18.58;56.79;99733.09;5090846;28;21005;-64
2023/01/15 11:07:39;;;;;;;2.13;0.90;;;;;;;18.62;56.61;99731.06;5074573;28;20720;-65
2023/01/15 11:10:06;;;;;;;2.00;0.80;;;;;;;18.59;56.82;99713.88;5060654;28;20186;-64
2023/01/15 11:20:55;;;;;;;1.50;0.70;;;;;;;18.59;56.81;99706.16;5091827;28;20410;-65
2023/01/15 11:23:22;;;;;;;1.73;0.70;;;;;;;18.57;56.83;99699.97;5088972;28;20444;-65
2023/01/15 11:25:58;;;;;;;1.93;0.70;;;;;;;18.57;57.04;99699.97;5073138;28;20661;-65
2023/01/15 11:28:41;;;;;;;2.37;0.90;;;;;;;18.57;56.97;99696.31;5053741;28;20485;-65
2023/01/15 11:31:07;;;;;;;2.10;1.10;;;;;;;18.62;56.75;99695.97;5056907;28;20769;-65
2023/01/15 11:33:33;;;;;;;1.40;0.60;;;;;;;18.61;56.60;99688.59;5053945;28;20425;-65
2023/01/15 11:36:06;;;;;;;1.77;0.90;;;;;;;18.57;56.88;99699.97;5056418;28;20433;-65
2023/01/15 11:38:43;;;;;;;3.23;0.90;;;;;;;18.56;56.78;99704.06;5072045;28;20179;-65
2023/01/15 11:52:36;;;;;;;1.57;0.73;;;;;;;18.59;57.07;99729.03;5091865;28;20408;-65
2023/01/15 11:55:02;;;;;;;1.30;0.67;;;;;;;18.59;56.95;99736.75;5053156;28;20467;-64
2023/01/15 11:57:31;;;;;;;1.60;0.83;;;;;;;18.63;57.17;99743.34;5091961;28;20447;-65
2023/01/15 11:59:57;;;;;;;2.10;0.90;;;;;;;18.60;56.74;99736.38;5088087;28;20432;-64
2023/01/15 12:02:22;;;;;;;2.93;0.90;;;;;;;18.62;56.82;99730.25;5091855;28;20447;-64
2023/01/15 12:04:53;;;;;;;3.50;0.67;;;;;;;18.59;57.08;99731.88;5074911;28;20191;-64
2023/01/15 12:07:23;;;;;;;1.30;0.60;;;;;;;18.59;56.90;99722.47;5062549;28;20558;-64
2023/01/15 12:10:13;;;;;;;1.73;0.70;;;;;;;18.61;56.88;99722.91;5056476;28;20782;-65
2023/01/15 12:13:08;;;;;;;1.70;0.60;;;;;;;18.63;56.93;99711.88;5055145;28;20462;-64
2023/01/15 12:15:33;;;;;;;1.60;0.80;;;;;;;18.60;57.33;99712.66;5016677;28;20912;-65
2023/01/15 12:18:02;;;;;;;2.63;0.90;;;;;;;18.61;56.93;99712.28;5070573;28;20401;-65
2023/01/15 12:20:51;;;;;;;1.73;0.70;;;;;;;18.61;56.75;99729.44;5086808;28;20191;-64
2023/01/15 12:23:53;;;;;;;2.40;0.87;;;;;;;18.60;56.89;99727.78;5090871;28;20483;-64
2023/01/15 12:26:33;;;;;;;1.70;0.73;;;;;;;18.58;57.12;99718.81;5087083;28;20436;-64
2023/01/15 12:29:01;;;;;;;1.63;0.83;;;;;;;18.63;57.13;99726.19;5072558;28;20436;-64
2023/01/15 12:31:34;;;;;;;1.80;0.93;;;;;;;18.57;56.91;99722.84;5097155;28;21832;-64
2023/01/15 12:34:16;;;;;;;2.13;0.90;;;;;;;18.63;57.00;99709.03;5070033;28;20429;-65